Latest Weather Observations for Ivanhoe Airport

IDN60801

Issued at 5:32 pm EDT Tuesday 24 January 2017 (issued every 30 minutes, with the page automatically refreshed every 10 minutes)

About weather observations | Map of weather stations | Latest weather observations for NSW | Other Formats
Station Details ID: 049000 Name: IVANHOE AERODROME AWS Lat: -32.88 Lon: 144.31 Height: 100.0 m
Data from the previous 72 hours. | See also: Recent months at Ivanhoe Airport
Date/Time
EDT
Temp
°C
App
Temp
°C
Dew
Point
°C
Rel
Hum
%
Delta-T
°C
Wind Press
QNH
hPa
Press
MSL
hPa
Rain since
9am
mm
Dir  Spd
km/h
Gust
km/h
Spd
kts
Gust
kts
24/05:30pm 28.4 28.7 18.8 56 6.2 SSW 15 20 8 11 1012.5 1011.9 1.0
24/05:00pm 28.0 27.2 18.1 55 6.3 SSW 19 26 10 14 1012.6 1012.0 1.0
24/04:30pm 28.2 27.9 19.2 58 5.8 SSW 19 28 10 15 1012.6 1012.0 1.0
24/04:00pm 28.5 27.8 19.4 57 5.9 SSW 22 32 12 17 1012.7 1012.1 1.0
24/03:30pm 28.3 28.3 19.8 60 5.6 SSW 19 26 10 14 1013.0 1012.4 1.0
24/03:00pm 28.4 29.5 21.2 65 4.8 SSW 17 24 9 13 1013.2 1012.6 1.0
24/02:30pm 25.5 28.2 23.4 88 1.4 S 15 20 8 11 1013.0 1012.4 1.0
24/02:00pm 24.8 26.0 22.5 87 1.5 SSW 20 28 11 15 1013.3 1012.7 0.4
24/01:30pm 29.0 28.6 20.2 59 5.8 SSW 22 30 12 16 1013.0 1012.4 0.0
24/01:00pm 29.1 29.0 20.8 61 5.5 SSW 22 32 12 17 1012.8 1012.2 0.0
24/12:30pm 30.4 30.6 20.6 55 6.5 SSW 20 30 11 16 1012.7 1012.1 0.0
24/12:00pm 30.5 30.5 20.1 53 6.9 SSW 20 30 11 16 1012.3 1011.7 0.0
24/11:30am 31.1 31.9 20.7 54 7.0 SSW 17 22 9 12 1012.1 1011.5 0.0
24/11:00am 30.0 30.3 20.3 56 6.4 SW 19 28 10 15 1011.9 1011.3 0.0
24/10:30am 28.9 29.6 20.4 60 5.6 SSW 17 24 9 13 1011.6 1011.0 0.0
24/10:00am 27.3 29.6 21.3 69 4.0 SSW 11 17 6 9 1011.9 1011.3 0.0
24/09:30am 28.2 29.5 19.4 59 5.7 SW 11 22 6 12 1012.3 1011.7 0.0
24/09:00am 29.0 30.6 17.8 50 7.1 NW 6 9 3 5 1011.9 1011.3 0.8
24/08:30am 28.3 30.3 17.8 53 6.7 NNE 4 7 2 4 1011.4 1010.8 0.8
24/08:00am 27.4 29.0 17.8 55 6.1 E 6 9 3 5 1010.8 1010.2 0.8
24/07:30am 26.6 29.9 19.0 63 4.9 CALM 0 0 0 0 1010.2 1009.6 0.8
24/07:00am 26.0 29.5 19.6 68 4.2 CALM 0 6 0 3 1009.6 1009.0 0.8
24/06:30am 26.0 28.1 18.2 62 5.0 S 4 6 2 3 1009.2 1008.6 0.8
24/06:00am 26.1 27.6 17.7 60 5.3 S 6 7 3 4 1008.4 1007.8 0.8
24/05:30am 26.6 28.2 17.9 59 5.5 S 6 7 3 4 1008.2 1007.6 0.8
24/05:00am 26.7 28.1 17.8 58 5.6 S 7 9 4 5 1008.2 1007.6 0.8
24/04:30am 27.2 28.3 17.1 54 6.3 S 7 11 4 6 1008.1 1007.5 0.8
24/04:00am 27.2 27.9 17.1 54 6.3 SE 9 11 5 6 1008.1 1007.5 0.8
24/03:30am 27.8 27.9 16.4 50 7.1 SW 11 17 6 9 1008.9 1008.3 0.8
24/03:00am 27.7 26.6 16.3 49 7.1 S 17 24 9 13 1008.0 1007.3 0.8
24/02:30am 26.8 25.5 17.3 56 6.0 S 20 30 11 16 1007.2 1006.5 0.8
24/02:00am 24.6 21.7 17.1 63 4.7 S 28 41 15 22 1007.0 1006.3 0.8
24/01:51am 27.3 23.7 15.3 48 7.3 SSW 28 43 15 23 1007.1 1006.4 0.4
24/01:38am 33.1 30.5 13.2 30 12.0 W 19 44 10 24 1006.2 1005.5 0.0
24/01:30am 34.8 35.9 20.4 43 9.7 NNW 15 19 8 10 1005.0 1004.4 0.0
24/01:00am 34.9 35.6 20.5 43 9.7 NNW 17 24 9 13 1004.7 1004.1 0.0
24/12:30am 35.1 36.1 20.2 41 10.0 NW 15 20 8 11 1004.7 1004.1 0.0
24/12:00am 35.3 36.4 19.6 39 10.5 NNW 13 20 7 11 1004.9 1004.3 0.0
 
Date/Time
EDT
Temp
°C
App
Temp
°C
Dew
Point
°C
Rel
Hum
%
Delta-T
°C
Wind Press
QNH
hPa
Press
MSL
hPa
Rain since
9am
mm
Dir  Spd
km/h
Gust
km/h
Spd
kts
Gust
kts
23/11:30pm 35.7 36.4 19.6 39 10.7 NNW 15 26 8 14 1004.9 1004.3 0.0
23/11:00pm 35.5 36.7 19.8 39 10.5 NNW 13 20 7 11 1004.7 1004.1 0.0
23/10:30pm 35.9 35.9 19.8 39 10.8 NNW 19 26 10 14 1004.4 1003.8 0.0
23/10:00pm 35.9 35.9 15.1 29 13.1 NNW 9 11 5 6 1003.9 1003.3 0.0
23/09:30pm 37.1 37.0 15.0 27 13.9 NW 9 11 5 6 1003.5 1002.9 0.0
23/09:00pm 38.2 37.8 15.3 25 14.6 NW 11 15 6 8 1003.3 1002.7 0.0
23/08:30pm 39.3 37.7 15.0 24 15.4 NW 17 20 9 11 1003.0 1002.4 0.0
23/08:00pm 40.1 38.1 15.0 23 16.0 NW 19 28 10 15 1002.6 1002.0 0.0
23/07:30pm 40.6 38.2 15.4 22 16.1 WNW 22 30 12 16 1002.3 1001.7 0.0
23/07:00pm 40.9 38.2 15.7 23 16.3 NW 24 33 13 18 1001.9 1001.3 0.0
23/06:30pm 41.5 38.4 15.5 22 16.7 NW 26 39 14 21 1001.9 1001.3 0.0
23/06:00pm 41.5 38.8 15.5 22 16.8 NW 24 33 13 18 1001.8 1001.2 0.0
23/05:30pm 41.9 39.0 15.1 21 17.1 NW 24 37 13 20 1002.0 1001.4 0.0
23/05:06pm 42.4 38.6 14.7 20 17.7 NNW 28 46 15 25 1002.1 1001.5 0.0
23/05:00pm 41.6 38.3 14.1 20 17.4 NW 24 41 13 22 1002.2 1001.6 0.0
23/04:30pm 41.8 37.8 14.2 19 17.4 WNW 28 37 15 20 1002.7 1002.1 0.0
23/04:00pm 41.6 38.6 14.8 20 17.1 NW 24 35 13 19 1003.1 1002.5 0.0
23/03:45pm 40.6 36.8 14.7 21 16.4 NW 28 46 15 25 1003.5 1002.9 0.0
23/03:30pm 41.1 38.0 14.4 21 16.9 NW 24 41 13 22 1003.8 1003.2 0.0
23/03:00pm 41.0 36.6 15.1 22 16.6 NNW 32 44 17 24 1004.1 1003.5 0.0
23/02:37pm 40.8 37.1 14.9 22 16.5 NNW 28 46 15 25 1004.3 1003.7 0.0
23/02:30pm 40.9 37.6 15.0 22 16.5 NNW 26 39 14 21 1004.3 1003.7 0.0
23/02:00pm 40.3 37.1 15.2 23 16.0 WNW 26 35 14 19 1004.7 1004.1 0.0
23/01:41pm 39.9 35.9 14.1 21 16.2 NW 28 46 15 25 1005.0 1004.4 0.0
23/01:30pm 40.0 37.0 14.9 22 15.9 NNW 24 33 13 18 1005.0 1004.4 0.0
23/01:00pm 40.1 36.4 15.0 23 16.0 NNW 28 43 15 23 1005.3 1004.7 0.0
23/12:47pm 41.3 37.5 14.6 21 16.9 NNW 28 50 15 27 1005.3 1004.7 0.0
23/12:30pm 40.8 37.6 14.2 21 16.8 NNW 24 41 13 22 1005.5 1004.9 0.0
23/12:00pm 39.7 36.0 14.0 22 16.1 NNW 26 41 14 22 1005.8 1005.2 0.0
23/11:30am 39.3 36.3 13.7 22 15.9 NNW 22 39 12 21 1006.1 1005.4 0.0
23/11:00am 38.7 35.7 13.8 22 15.5 N 22 35 12 19 1006.2 1005.5 0.0
23/10:30am 37.1 34.3 13.2 24 14.7 NNW 20 28 11 15 1006.5 1005.8 0.0
23/10:00am 36.3 32.7 9.8 20 15.5 NNW 19 28 10 15 1006.7 1006.0 0.0
23/09:30am 34.9 31.5 10.7 23 14.2 N 19 26 10 14 1006.8 1006.1 0.0
23/09:00am 32.7 29.3 10.7 26 12.8 N 19 26 10 14 1006.8 1006.1 0.0
23/08:30am 31.0 27.7 10.9 29 11.6 N 19 24 10 13 1006.6 1005.9 0.0
23/08:00am 28.4 25.8 9.2 30 10.7 NNE 13 19 7 10 1006.5 1005.8 0.0
23/07:30am 26.2 24.0 7.7 31 9.9 NNE 9 11 5 6 1006.2 1005.5 0.0
23/07:00am 24.1 21.8 7.3 34 8.9 NE 9 11 5 6 1005.9 1005.3 0.0
23/06:30am 23.1 20.9 6.4 34 8.6 NE 7 9 4 5 1005.6 1005.0 0.0
23/06:00am 23.5 21.3 6.3 33 8.9 NE 7 11 4 6 1005.4 1004.8 0.0
23/05:30am 23.5 20.8 5.4 31 9.2 NE 9 11 5 6 1005.4 1004.8 0.0
23/05:00am 24.3 21.7 6.1 31 9.4 NE 9 9 5 5 1005.2 1004.6 0.0
23/04:30am 23.1 20.4 5.5 32 8.9 NE 9 11 5 6 1005.3 1004.7 0.0
23/04:00am 24.0 22.3 5.8 31 9.3 ENE 4 11 2 6 1005.4 1004.8 0.0
23/03:30am 24.3 22.9 5.6 30 9.5 NE 2 6 1 3 1005.6 1005.0 0.0
23/03:00am 25.5 23.1 5.1 27 10.4 WNW 7 9 4 5 1005.8 1005.2 0.0
23/02:30am 26.0 23.7 5.0 26 10.7 NW 6 7 3 4 1006.4 1005.7 0.0
23/02:00am 27.3 24.5 5.0 24 11.5 NW 9 11 5 6 1007.0 1006.3 0.0
23/01:30am 29.9 26.7 5.2 21 12.9 N 11 13 6 7 1007.2 1006.5 0.0
23/01:00am 29.5 26.4 5.6 22 12.6 N 11 15 6 8 1007.5 1006.8 0.0
23/12:30am 27.6 24.3 4.6 23 11.8 NNE 11 13 6 7 1007.5 1006.8 0.0
23/12:00am 30.6 27.9 5.8 21 13.2 N 9 15 5 8 1007.5 1006.8 0.0
 
Date/Time
EDT
Temp
°C
App
Temp
°C
Dew
Point
°C
Rel
Hum
%
Delta-T
°C
Wind Press
QNH
hPa
Press
MSL
hPa
Rain since
9am
mm
Dir  Spd
km/h
Gust
km/h
Spd
kts
Gust
kts
22/11:30pm 27.9 26.6 4.2 22 12.1 CALM 0 0 0 0 1007.7 1007.0 0.0
22/11:00pm 30.9 28.5 5.3 20 13.5 N 7 11 4 6 1007.5 1006.8 0.0
22/10:30pm 30.0 27.7 4.6 20 13.2 E 6 7 3 4 1007.6 1006.9 0.0
22/10:00pm 30.6 27.7 4.4 19 13.6 E 9 9 5 5 1007.4 1006.7 0.0
22/09:30pm 31.3 28.7 4.2 18 14.1 E 7 9 4 5 1007.4 1006.7 0.0
22/09:00pm 32.6 30.0 4.4 17 14.8 ENE 7 7 4 4 1007.4 1006.7 0.0
22/08:30pm 34.3 31.8 4.0 15 16.0 E 6 9 3 5 1007.1 1006.4 0.0
22/08:00pm 36.7 33.4 2.7 12 17.8 ESE 9 11 5 6 1007.0 1006.3 0.0
22/07:30pm 37.6 34.8 2.1 11 18.5 SE 6 11 3 6 1006.9 1006.2 0.0
22/07:00pm 38.1 35.6 3.8 12 18.4 S 6 13 3 7 1006.8 1006.1 0.0
22/06:30pm 38.6 35.8 2.9 11 18.9 NNW 7 19 4 10 1006.8 1006.1 0.0
22/06:00pm 38.8 36.0 3.1 11 19.0 WNW 7 13 4 7 1007.0 1006.3 0.0
22/05:30pm 37.9 34.8 3.6 12 18.3 N 9 20 5 11 1007.4 1006.7 0.0
22/05:00pm 38.6 35.0 2.9 11 19.0 W 11 17 6 9 1007.7 1007.0 0.0
22/04:30pm 38.1 34.3 3.8 12 18.4 NE 13 24 7 13 1008.0 1007.3 0.0
22/04:00pm 38.0 35.1 4.8 13 18.1 NNW 9 24 5 13 1008.2 1007.6 0.0
22/03:30pm 37.3 33.8 5.3 14 17.5 N 13 39 7 21 1008.6 1008.0 0.0
22/03:00pm 36.6 33.3 4.8 14 17.2 SSE 11 15 6 8 1009.0 1008.4 0.0
22/02:30pm 36.4 32.6 5.6 15 16.8 NNE 15 20 8 11 1009.6 1009.0 0.0
22/02:00pm 35.9 33.3 6.2 16 16.4 ENE 9 17 5 9 1010.0 1009.4 0.0
22/01:30pm 35.2 31.9 6.5 17 15.8 N 13 20 7 11 1010.3 1009.7 0.0
22/01:00pm 34.4 31.7 5.8 17 15.5 E 9 20 5 11 1010.8 1010.2 0.0
22/12:30pm 34.2 31.1 5.7 17 15.4 E 11 22 6 12 1011.2 1010.6 0.0
22/12:00pm 33.3 30.3 5.8 18 14.8 NNE 11 20 6 11 1011.6 1011.0 0.0
22/11:30am 33.2 29.9 6.5 19 14.6 E 13 24 7 13 1011.9 1011.3 0.0
22/11:00am 31.7 28.3 6.0 20 13.8 E 13 26 7 14 1012.0 1011.4 0.0
22/10:30am 30.7 27.2 7.2 23 12.8 E 15 20 8 11 1012.0 1011.4 0.0
22/10:00am 28.8 25.8 7.9 27 11.4 ESE 13 17 7 9 1012.2 1011.6 0.0
22/09:30am 26.8 24.4 8.7 32 9.9 ESE 11 15 6 8 1012.7 1012.1 0.0
22/09:00am 24.6 21.5 9.0 37 8.5 SE 15 20 8 11 1012.8 1012.2 0.0
22/08:30am 22.9 20.0 9.7 43 7.2 ESE 15 20 8 11 1012.9 1012.3 0.0
22/08:00am 20.5 18.0 9.7 50 5.8 SE 13 19 7 10 1012.8 1012.2 0.0
22/07:30am 18.8 16.1 9.0 53 5.1 ESE 13 17 7 9 1012.5 1011.9 0.0
22/07:00am 17.2 14.7 8.4 56 4.5 SE 11 13 6 7 1012.2 1011.6 0.0
22/06:30am 16.8 14.3 8.0 56 4.5 SE 11 13 6 7 1012.0 1011.4 0.0
22/06:00am 17.7 14.8 8.0 53 5.0 SE 13 17 7 9 1011.7 1011.1 0.0
22/05:30am 18.1 15.1 7.5 50 5.4 SE 13 19 7 10 1011.4 1010.8 0.0
22/05:00am 19.1 14.9 7.5 47 5.9 SE 19 26 10 14 1011.1 1010.5 0.0
22/04:30am 18.9 15.4 7.0 46 6.0 SE 15 19 8 10 1011.1 1010.5 0.0
22/04:00am 18.3 15.0 6.2 45 6.0 SE 13 17 7 9 1011.0 1010.4 0.0
22/03:30am 18.7 15.4 6.2 44 6.2 SSE 13 17 7 9 1011.2 1010.6 0.0
22/03:00am 19.2 15.9 6.3 43 6.5 SSE 13 17 7 9 1011.3 1010.7 0.0
22/02:30am 19.3 16.3 6.1 42 6.6 SSE 11 15 6 8 1011.4 1010.8 0.0
22/02:00am 19.5 16.4 5.6 40 6.9 SSE 11 13 6 7 1011.5 1010.9 0.0
22/01:30am 19.7 16.9 5.0 38 7.2 S 9 11 5 6 1011.7 1011.1 0.0
22/01:00am 20.5 17.2 4.5 35 7.8 S 11 13 6 7 1011.8 1011.2 0.0
22/12:30am 20.3 17.2 3.5 33 8.0 SSW 9 13 5 7 1011.7 1011.1 0.0
22/12:00am 20.9 17.6 2.7 30 8.6 SSW 9 13 5 7 1011.8 1011.2 0.0
 
Date/Time
EDT
Temp
°C
App
Temp
°C
Dew
Point
°C
Rel
Hum
%
Delta-T
°C
Wind Press
QNH
hPa
Press
MSL
hPa
Rain since
9am
mm
Dir  Spd
km/h
Gust
km/h
Spd
kts
Gust
kts
21/11:30pm 21.7 18.8 2.4 28 9.1 SSW 7 9 4 5 1011.6 1011.0 0.0
21/11:00pm 23.0 19.7 2.5 26 9.8 SSW 9 11 5 6 1011.4 1010.8 0.0
21/10:30pm 24.5 20.5 2.6 24 10.6 S 13 15 7 8 1011.1 1010.5 0.0
21/10:00pm 25.2 21.5 2.6 23 11.0 S 11 15 6 8 1011.0 1010.4 0.0
21/09:30pm 26.2 22.6 2.8 22 11.5 S 11 15 6 8 1010.8 1010.2 0.0
21/09:00pm 27.2 23.5 2.3 20 12.2 S 11 13 6 7 1010.6 1010.0 0.0
21/08:30pm 29.0 24.9 2.3 18 13.2 S 13 19 7 10 1010.3 1009.7 0.0
21/08:00pm 30.5 26.0 1.9 16 14.2 S 15 22 8 12 1010.1 1009.5 0.0
21/07:30pm 31.3 26.9 2.5 16 14.5 S 15 22 8 12 1010.0 1009.4 0.0
21/07:00pm 31.4 26.6 2.6 16 14.6 S 17 26 9 14 1009.7 1009.1 0.0
21/06:30pm 31.4 27.4 2.6 16 14.6 S 13 26 7 14 1009.6 1009.0 0.0
21/06:00pm 31.9 27.6 3.0 16 14.8 S 15 26 8 14 1009.7 1009.1 0.0

Other Formats:

Comma delimited format used in spreadsheet applications
http://www.bom.gov.au/fwo/IDN60801/IDN60801.95697.axf

JavaScript Object Notation format (JSON) in row-major order
http://www.bom.gov.au/fwo/IDN60801/IDN60801.95697.json